Time;durP1;ratioP1;P1;durP2;ratioP2;P2;SDS_P1;SDS_P2;PMS_P1;PMS_P2;Temp;Humidity;BMP_temperature;BMP_pressure;BME280_temperature;BME280_humidity;BME280_pressure;Samples;Min_cycle;Max_cycle;Signal;HPM_P1;HPM_P2
2024/02/08 00:01:43;;;;;;;5.65;2.83;;;7.80;99.90;;;;;;5052209;28;20044;-50
2024/02/08 00:04:10;;;;;;;6.18;2.85;;;7.80;99.90;;;;;;5056936;28;20060;-46
2024/02/08 00:06:37;;;;;;;10.20;3.58;;;7.80;99.90;;;;;;5054622;28;20540;-51
2024/02/08 00:09:06;;;;;;;5.15;2.70;;;7.80;99.90;;;;;;5048853;28;20411;-47
2024/02/08 00:11:33;;;;;;;7.00;2.80;;;7.80;99.90;;;;;;5054068;28;20157;-51
2024/02/08 00:13:59;;;;;;;6.28;3.65;;;7.80;99.90;;;;;;5047076;28;20044;-51
2024/02/08 00:16:27;;;;;;;6.00;3.08;;;7.80;99.90;;;;;;5050329;28;20041;-46
2024/02/08 00:18:57;;;;;;;6.68;2.90;;;7.80;99.90;;;;;;5050993;28;20045;-46
2024/02/08 00:21:24;;;;;;;5.75;2.50;;;7.90;99.90;;;;;;5050477;28;20071;-48
2024/02/08 00:23:52;;;;;;;6.00;2.95;;;8.00;99.90;;;;;;5053163;28;20033;-50
2024/02/08 00:26:20;;;;;;;7.00;2.67;;;7.90;99.90;;;;;;5054748;28;20055;-50
2024/02/08 00:28:47;;;;;;;5.22;2.95;;;8.00;99.90;;;;;;5050616;28;20041;-48
2024/02/08 00:31:14;;;;;;;6.75;2.88;;;7.90;99.90;;;;;;5048816;28;20254;-49
2024/02/08 00:33:41;;;;;;;5.30;2.88;;;7.90;99.90;;;;;;5054663;28;20037;-50
2024/02/08 00:36:09;;;;;;;6.35;2.95;;;8.00;99.90;;;;;;5051897;28;20121;-50
2024/02/08 00:38:37;;;;;;;5.68;2.92;;;8.00;99.90;;;;;;5051545;28;20103;-48
2024/02/08 00:41:04;;;;;;;5.47;2.65;;;8.00;99.90;;;;;;5049399;28;20094;-50
2024/02/08 00:43:31;;;;;;;5.25;2.60;;;8.00;99.90;;;;;;5054398;28;20056;-49
2024/02/08 00:45:58;;;;;;;4.72;2.75;;;8.00;99.90;;;;;;5052667;28;20083;-49
2024/02/08 00:48:25;;;;;;;5.65;3.25;;;8.00;99.90;;;;;;5050723;28;20053;-50
2024/02/08 00:50:53;;;;;;;4.43;2.20;;;8.00;99.90;;;;;;5052998;28;20498;-54
2024/02/08 00:53:20;;;;;;;4.18;2.58;;;8.10;99.90;;;;;;5044212;28;20068;-44
2024/02/08 00:55:47;;;;;;;6.38;2.17;;;8.00;99.90;;;;;;5051271;28;20045;-49
2024/02/08 00:58:15;;;;;;;4.45;2.38;;;8.10;99.90;;;;;;5050347;28;20095;-44
2024/02/08 01:00:43;;;;;;;7.40;2.30;;;8.10;99.90;;;;;;5048991;28;20040;-54
2024/02/08 01:03:10;;;;;;;5.82;2.55;;;8.10;99.90;;;;;;5053702;28;20041;-48
2024/02/08 01:05:37;;;;;;;5.50;2.70;;;8.10;99.90;;;;;;5049255;28;20422;-52
2024/02/08 01:08:05;;;;;;;4.15;2.60;;;8.10;99.90;;;;;;5050120;28;20547;-49
2024/02/08 01:10:32;;;;;;;4.82;2.80;;;8.10;99.90;;;;;;5048064;28;20433;-49
2024/02/08 01:12:59;;;;;;;4.72;2.60;;;8.10;99.90;;;;;;5050901;28;20056;-50
2024/02/08 01:15:26;;;;;;;4.05;2.35;;;8.00;99.90;;;;;;5048613;28;20076;-49
2024/02/08 01:17:53;;;;;;;5.38;2.63;;;8.00;99.90;;;;;;5047631;28;20101;-52
2024/02/08 01:20:22;;;;;;;4.32;2.40;;;8.00;99.90;;;;;;5050656;28;20123;-46
2024/02/08 01:22:50;;;;;;;5.32;2.45;;;8.00;99.90;;;;;;5049592;28;20044;-50
2024/02/08 01:25:18;;;;;;;4.68;2.10;;;8.00;99.90;;;;;;5051827;28;20049;-54
2024/02/08 01:27:45;;;;;;;4.85;2.50;;;8.00;99.90;;;;;;5049387;28;20041;-48
2024/02/08 01:30:13;;;;;;;5.00;2.42;;;8.00;99.90;;;;;;5047532;28;20249;-46
2024/02/08 01:32:40;;;;;;;6.20;2.40;;;8.10;99.90;;;;;;5050969;28;20102;-49
2024/02/08 01:35:11;;;;;;;3.70;2.08;;;8.10;99.90;;;;;;5046845;28;20053;-49
2024/02/08 01:37:38;;;;;;;4.53;1.92;;;8.10;99.90;;;;;;5055021;28;20064;-52
2024/02/08 01:40:08;;;;;;;3.40;1.95;;;8.10;99.90;;;;;;5047399;28;20090;-53
2024/02/08 01:42:37;;;;;;;4.40;2.20;;;8.10;99.90;;;;;;5047289;28;20037;-43
2024/02/08 01:45:32;;;;;;;4.00;2.58;;;8.10;99.90;;;;;;5049546;28;20045;-50
2024/02/08 01:48:01;;;;;;;4.30;2.35;;;8.10;99.90;;;;;;5034460;28;20045;-48
2024/02/08 01:50:35;;;;;;;3.38;2.17;;;8.10;99.90;;;;;;5053923;28;20159;-47
2024/02/08 01:53:05;;;;;;;4.68;2.08;;;8.10;99.90;;;;;;5049262;28;20041;-47
2024/02/08 01:55:33;;;;;;;4.10;2.28;;;8.10;99.90;;;;;;5051829;28;20102;-52
2024/02/08 01:58:09;;;;;;;4.90;1.90;;;8.10;99.90;;;;;;5032235;28;20080;-51
2024/02/08 02:00:36;;;;;;;3.85;2.38;;;8.10;99.90;;;;;;5048223;28;20064;-48
2024/02/08 02:03:12;;;;;;;3.30;1.67;;;8.10;99.90;;;;;;5034084;28;20481;-52
2024/02/08 02:05:46;;;;;;;5.03;2.60;;;8.10;99.90;;;;;;5048216;28;20107;-46
2024/02/08 02:08:22;;;;;;;5.25;2.30;;;8.10;99.90;;;;;;5052547;28;20434;-49
2024/02/08 02:10:52;;;;;;;5.50;2.00;;;8.10;99.90;;;;;;5048333;28;20191;-47
2024/02/08 02:13:19;;;;;;;3.35;1.90;;;8.10;99.90;;;;;;5051118;28;20052;-52
2024/02/08 02:15:47;;;;;;;4.30;1.85;;;8.10;99.90;;;;;;5049195;28;20445;-49
2024/02/08 02:18:16;;;;;;;5.18;2.05;;;8.10;99.90;;;;;;5047576;28;20080;-44
2024/02/08 02:20:44;;;;;;;4.13;1.80;;;8.10;99.90;;;;;;5050528;28;20103;-49
2024/02/08 02:23:10;;;;;;;3.78;1.98;;;8.10;99.90;;;;;;5030274;28;20436;-45
2024/02/08 02:25:38;;;;;;;6.93;2.22;;;8.20;99.90;;;;;;5051721;28;20071;-48
2024/02/08 02:28:08;;;;;;;4.60;2.17;;;8.10;99.90;;;;;;5047775;28;20108;-46
2024/02/08 02:30:35;;;;;;;5.57;2.08;;;8.10;99.90;;;;;;5048279;28;20033;-47
2024/02/08 02:33:06;;;;;;;4.15;2.05;;;8.00;99.90;;;;;;5050398;28;20394;-48
2024/02/08 02:35:34;;;;;;;5.18;2.38;;;8.10;99.90;;;;;;5046288;28;20394;-52
2024/02/08 02:38:02;;;;;;;5.07;2.08;;;8.00;99.90;;;;;;5049722;28;20049;-46
2024/02/08 02:40:30;;;;;;;4.07;2.10;;;8.10;99.90;;;;;;5047507;28;20072;-45
2024/02/08 02:42:58;;;;;;;4.43;2.20;;;8.10;99.90;;;;;;5048630;28;20041;-53
2024/02/08 02:45:28;;;;;;;3.28;1.80;;;8.10;99.90;;;;;;5050215;28;20052;-45
2024/02/08 02:47:58;;;;;;;3.47;1.90;;;8.10;99.90;;;;;;5047242;28;20053;-48
2024/02/08 02:50:25;;;;;;;5.13;1.80;;;8.10;99.90;;;;;;5055071;28;20403;-47
2024/02/08 02:52:52;;;;;;;3.92;1.80;;;8.10;99.90;;;;;;5047541;28;20041;-49
2024/02/08 02:55:20;;;;;;;7.80;2.35;;;8.20;99.90;;;;;;5052142;28;20045;-45
2024/02/08 02:57:47;;;;;;;4.78;1.90;;;8.10;99.90;;;;;;5048060;28;20120;-47
2024/02/08 03:00:33;;;;;;;4.20;1.98;;;8.10;99.90;;;;;;5033278;28;20055;-52
2024/02/08 03:03:08;;;;;;;2.92;1.77;;;8.10;99.90;;;;;;5052325;28;20421;-52
2024/02/08 03:05:43;;;;;;;4.53;2.00;;;8.10;99.90;;;;;;5048364;28;20332;-46
2024/02/08 03:08:10;;;;;;;7.65;2.10;;;8.10;99.90;;;;;;5029948;28;20044;-49
2024/02/08 03:10:38;;;;;;;3.63;1.90;;;8.10;99.90;;;;;;5054157;28;20114;-54
2024/02/08 03:13:07;;;;;;;3.53;1.55;;;8.10;99.90;;;;;;5052828;28;20041;-45
2024/02/08 03:15:38;;;;;;;4.78;1.60;;;8.10;99.90;;;;;;5050258;28;20490;-48
2024/02/08 03:18:09;;;;;;;2.70;1.58;;;8.10;99.90;;;;;;5043680;28;20140;-51
2024/02/08 03:20:38;;;;;;;4.78;1.80;;;8.20;99.90;;;;;;5053358;28;20036;-43
2024/02/08 03:23:05;;;;;;;4.68;1.80;;;8.10;99.90;;;;;;5051614;28;20405;-46
2024/02/08 03:25:40;;;;;;;4.03;1.65;;;8.10;99.90;;;;;;5052156;28;20075;-47
2024/02/08 03:28:08;;;;;;;3.55;1.90;;;8.10;99.90;;;;;;5051739;28;20041;-56
2024/02/08 03:30:35;;;;;;;3.03;1.58;;;8.20;99.90;;;;;;5052014;28;20098;-52
2024/02/08 03:33:12;;;;;;;3.97;1.60;;;8.20;99.90;;;;;;5052697;28;20049;-50
2024/02/08 03:35:39;;;;;;;3.90;1.55;;;8.20;99.90;;;;;;5051931;28;20049;-46
2024/02/08 03:38:08;;;;;;;2.75;1.40;;;8.20;99.90;;;;;;5051513;28;20041;-45
2024/02/08 03:40:36;;;;;;;3.42;1.58;;;8.30;99.90;;;;;;5056759;28;20037;-46
2024/02/08 03:43:04;;;;;;;3.30;1.30;;;8.30;99.90;;;;;;5051395;28;20430;-50
2024/02/08 03:45:31;;;;;;;2.20;1.00;;;8.30;99.90;;;;;;5054696;28;20124;-47
2024/02/08 03:47:59;;;;;;;2.72;1.20;;;8.30;99.90;;;;;;5051006;28;20598;-50
2024/02/08 03:50:33;;;;;;;2.38;1.20;;;8.40;99.90;;;;;;5045952;28;20395;-46
2024/02/08 03:53:02;;;;;;;3.17;1.13;;;8.40;99.90;;;;;;5053681;28;20421;-47
2024/02/08 03:55:34;;;;;;;3.00;1.40;;;8.40;99.90;;;;;;5052960;28;20060;-48
2024/02/08 03:58:06;;;;;;;2.83;1.10;;;8.40;99.90;;;;;;5053464;28;20033;-55
2024/02/08 04:00:34;;;;;;;2.35;1.20;;;8.40;99.90;;;;;;5048888;28;20037;-53
2024/02/08 04:03:06;;;;;;;2.35;1.30;;;8.40;99.90;;;;;;5051391;28;20501;-49
2024/02/08 04:05:58;;;;;;;1.90;1.17;;;8.40;99.90;;;;;;5047874;28;20458;-45
2024/02/08 04:54:53;;;;;;;2.13;1.13;;;8.60;99.90;;;;;;5054615;28;20494;-49
2024/02/08 04:57:25;;;;;;;2.10;1.20;;;8.60;99.90;;;;;;5052449;28;20105;-50
2024/02/08 04:59:52;;;;;;;3.10;1.33;;;8.60;99.90;;;;;;5052003;28;20259;-49
2024/02/08 05:02:21;;;;;;;1.88;1.00;;;8.60;99.90;;;;;;5052625;28;20095;-51
2024/02/08 05:04:49;;;;;;;1.70;1.02;;;8.60;99.90;;;;;;5050502;28;20040;-50
2024/02/08 05:07:17;;;;;;;2.08;1.20;;;8.60;99.90;;;;;;5052870;28;20049;-51
2024/02/08 05:09:45;;;;;;;2.67;1.10;;;8.60;99.90;;;;;;5050261;28;20406;-46
2024/02/08 05:12:12;;;;;;;2.60;1.20;;;8.60;99.90;;;;;;5052077;28;20072;-50
2024/02/08 05:14:39;;;;;;;2.38;1.30;;;8.70;99.90;;;;;;5049911;28;20366;-51
2024/02/08 05:17:08;;;;;;;2.20;1.20;;;8.60;99.90;;;;;;5045105;28;20051;-50
2024/02/08 05:19:43;;;;;;;3.28;0.90;;;8.60;99.90;;;;;;5052166;28;20047;-55
2024/02/08 05:22:13;;;;;;;2.55;1.20;;;8.60;99.90;;;;;;5048045;28;20057;-49
2024/02/08 05:24:40;;;;;;;2.60;1.30;;;8.60;99.90;;;;;;5046608;28;20115;-55
2024/02/08 05:27:15;;;;;;;4.95;1.50;;;8.60;99.90;;;;;;5050395;28;20115;-49
2024/02/08 05:29:42;;;;;;;2.38;1.23;;;8.60;99.90;;;;;;5046302;28;20072;-46
2024/02/08 05:32:09;;;;;;;3.67;1.13;;;8.60;99.90;;;;;;5050981;28;20080;-50
2024/02/08 05:34:37;;;;;;;3.30;1.20;;;8.60;99.90;;;;;;5046975;28;20049;-50
2024/02/08 05:37:04;;;;;;;2.53;1.27;;;8.60;99.90;;;;;;5048726;28;20079;-48
2024/02/08 05:39:31;;;;;;;2.45;1.33;;;8.60;99.90;;;;;;5047645;28;20045;-48
2024/02/08 05:41:59;;;;;;;2.05;1.20;;;8.60;99.90;;;;;;5051680;28;20069;-48
2024/02/08 05:44:29;;;;;;;3.95;1.25;;;8.60;99.90;;;;;;5049531;28;20056;-48
2024/02/08 05:47:07;;;;;;;2.60;1.25;;;8.60;99.90;;;;;;5054301;28;20106;-53
2024/02/08 05:49:38;;;;;;;2.63;1.25;;;8.60;99.90;;;;;;5052391;28;20098;-51
2024/02/08 05:52:05;;;;;;;2.15;1.25;;;8.60;99.90;;;;;;5041794;28;20060;-52
2024/02/08 05:54:36;;;;;;;2.83;1.30;;;8.60;99.90;;;;;;5051863;28;20623;-48
2024/02/08 05:57:06;;;;;;;2.42;1.30;;;8.60;99.90;;;;;;5043190;28;20527;-46
2024/02/08 05:59:36;;;;;;;3.03;1.05;;;8.60;99.90;;;;;;5042010;28;20057;-48
2024/02/08 06:02:22;;;;;;;2.20;1.20;;;8.60;99.90;;;;;;5041697;28;20052;-49
2024/02/08 06:04:59;;;;;;;2.60;1.23;;;8.60;99.90;;;;;;5048511;28;20047;-54
2024/02/08 06:07:36;;;;;;;3.10;1.20;;;8.60;99.90;;;;;;5051790;28;20474;-51
2024/02/08 06:10:13;;;;;;;3.78;1.77;;;8.70;99.90;;;;;;5040815;28;20053;-52
2024/02/08 06:12:46;;;;;;;1.95;1.13;;;8.70;99.90;;;;;;5045241;28;20414;-48
2024/02/08 06:15:32;;;;;;;3.88;2.00;;;8.70;99.90;;;;;;5055792;28;20060;-47
2024/02/08 06:18:06;;;;;;;2.50;1.25;;;8.60;99.90;;;;;;5053419;28;20037;-48
2024/02/08 06:20:40;;;;;;;2.20;1.20;;;8.60;99.90;;;;;;5054172;28;20049;-44
2024/02/08 06:23:17;;;;;;;2.17;1.15;;;8.60;99.90;;;;;;5053691;28;20109;-43
2024/02/08 06:28:37;;;;;;;4.38;1.25;;;8.70;99.90;;;;;;5049357;28;20374;-47
2024/02/08 06:31:08;;;;;;;4.80;1.20;;;8.70;99.90;;;;;;5052795;28;20072;-48
2024/02/08 06:34:09;;;;;;;4.72;1.45;;;8.70;99.90;;;;;;5049098;28;20144;-48
2024/02/08 06:36:42;;;;;;;4.38;1.50;;;8.70;99.90;;;;;;5055022;28;20036;-51
2024/02/08 06:39:23;;;;;;;2.28;1.27;;;8.70;99.90;;;;;;5055820;28;20068;-52
2024/02/08 06:41:52;;;;;;;3.53;1.35;;;8.70;99.90;;;;;;5036529;28;20056;-49
2024/02/08 06:47:54;;;;;;;2.42;1.33;;;8.70;99.90;;;;;;4992012;28;20756;-47
2024/02/08 07:37:27;;;;;;;2.25;1.10;;;8.90;99.90;;;;;;5043013;28;20392;-45
2024/02/08 07:40:00;;;;;;;4.07;1.73;;;8.90;99.90;;;;;;5030451;28;20044;-47
2024/02/08 07:42:29;;;;;;;2.78;1.48;;;9.00;99.90;;;;;;5051311;28;20562;-46
2024/02/08 07:44:57;;;;;;;3.05;1.25;;;9.00;99.90;;;;;;5048939;28;20073;-50
2024/02/08 07:47:24;;;;;;;3.42;1.50;;;9.00;99.90;;;;;;5047964;28;20071;-50
2024/02/08 07:50:04;;;;;;;3.45;1.10;;;9.10;99.90;;;;;;5047942;28;20121;-43
2024/02/08 07:52:45;;;;;;;3.53;1.20;;;9.10;99.90;;;;;;5049176;28;20049;-45
2024/02/08 07:55:46;;;;;;;1.80;0.97;;;9.10;99.90;;;;;;5049061;28;20120;-52
2024/02/08 07:58:20;;;;;;;2.67;1.15;;;9.10;99.90;;;;;;5055973;28;20134;-49
2024/02/08 08:00:49;;;;;;;1.45;0.98;;;9.10;99.90;;;;;;5052309;28;20132;-50
2024/02/08 08:03:17;;;;;;;2.70;1.30;;;9.20;99.90;;;;;;5050014;28;20056;-47
2024/02/08 08:05:45;;;;;;;3.55;1.45;;;9.20;99.90;;;;;;5049056;28;20048;-47
2024/02/08 08:08:24;;;;;;;3.05;1.30;;;9.30;99.90;;;;;;5046601;28;20609;-47
2024/02/08 08:11:02;;;;;;;3.63;1.40;;;9.30;99.90;;;;;;5051300;28;20064;-49
2024/02/08 08:19:07;;;;;;;2.40;1.00;;;9.40;99.90;;;;;;5030452;28;20044;-45
2024/02/08 08:22:03;;;;;;;2.38;1.00;;;9.40;99.90;;;;;;5049401;28;20119;-50
2024/02/08 08:24:42;;;;;;;3.15;1.13;;;9.40;99.90;;;;;;5049437;28;20162;-46
2024/02/08 08:27:32;;;;;;;3.08;0.90;;;9.40;99.90;;;;;;5049385;28;20076;-50
2024/02/08 08:29:59;;;;;;;3.50;1.13;;;9.40;99.90;;;;;;5046871;28;20045;-48
2024/02/08 08:43:10;;;;;;;1.45;0.80;;;9.60;99.90;;;;;;5044262;28;20048;-54
2024/02/08 08:45:40;;;;;;;2.88;1.25;;;9.70;99.90;;;;;;5045191;28;20052;-46
2024/02/08 08:48:08;;;;;;;3.22;1.05;;;9.70;99.90;;;;;;5043540;28;20228;-48
2024/02/08 08:50:35;;;;;;;2.42;1.00;;;9.70;99.90;;;;;;5043501;28;20060;-53
2024/02/08 08:53:16;;;;;;;1.67;0.90;;;9.70;99.90;;;;;;5043350;28;20048;-49
2024/02/08 08:55:49;;;;;;;1.90;0.90;;;9.80;99.90;;;;;;5044675;28;20037;-48
2024/02/08 08:58:22;;;;;;;0.98;0.77;;;9.80;99.90;;;;;;5051632;28;20294;-45
2024/02/08 09:00:58;;;;;;;2.08;0.90;;;9.70;99.90;;;;;;5047932;28;20037;-48
2024/02/08 09:03:26;;;;;;;2.55;0.80;;;9.80;99.90;;;;;;5041830;28;20308;-46
2024/02/08 09:05:57;;;;;;;3.45;1.58;;;9.90;99.90;;;;;;5046757;28;20048;-54
2024/02/08 09:08:34;;;;;;;1.55;0.90;;;9.80;99.90;;;;;;5046060;28;20689;-51
2024/02/08 09:11:05;;;;;;;1.38;0.80;;;9.80;99.90;;;;;;5056902;28;20489;-50
2024/02/08 09:13:37;;;;;;;1.38;0.77;;;9.90;99.90;;;;;;5044976;28;20053;-48
2024/02/08 09:21:27;;;;;;;2.15;0.93;;;10.00;99.90;;;;;;5041933;28;20413;-46
2024/02/08 09:23:54;;;;;;;2.83;0.80;;;10.10;99.90;;;;;;5046916;28;20079;-48
2024/02/08 09:26:24;;;;;;;1.08;0.70;;;10.00;99.90;;;;;;5044755;28;20132;-45
2024/02/08 09:28:52;;;;;;;2.58;1.10;;;10.00;99.90;;;;;;5045009;28;20069;-51
2024/02/08 09:31:19;;;;;;;1.48;0.80;;;10.00;99.90;;;;;;5048922;28;20532;-48
2024/02/08 09:34:00;;;;;;;2.10;0.82;;;10.10;99.90;;;;;;5045693;28;20059;-48
2024/02/08 09:36:29;;;;;;;1.60;0.80;;;10.20;99.90;;;;;;5045969;28;20044;-49
2024/02/08 09:38:56;;;;;;;1.33;0.90;;;10.10;99.90;;;;;;5050923;28;20183;-47
2024/02/08 09:41:24;;;;;;;3.40;1.35;;;10.10;99.90;;;;;;5050962;28;20522;-49
2024/02/08 09:44:00;;;;;;;2.50;0.95;;;10.20;99.90;;;;;;5040191;28;20131;-47
2024/02/08 09:49:13;;;;;;;1.98;0.90;;;10.20;99.90;;;;;;5052599;28;20181;-50
2024/02/08 09:51:52;;;;;;;1.77;0.80;;;10.30;99.90;;;;;;5047780;28;20449;-44
2024/02/08 09:54:28;;;;;;;3.17;1.40;;;10.20;99.90;;;;;;5053439;28;20419;-49
2024/02/08 09:57:20;;;;;;;1.88;0.90;;;10.20;99.90;;;;;;5057971;28;20454;-52
2024/02/08 10:00:10;;;;;;;1.90;0.97;;;10.10;99.90;;;;;;5060357;28;20083;-45
2024/02/08 10:03:03;;;;;;;2.17;0.90;;;10.20;99.90;;;;;;5058347;28;20287;-50
2024/02/08 10:05:51;;;;;;;1.83;1.00;;;10.30;99.90;;;;;;5051252;28;20049;-51
2024/02/08 10:08:28;;;;;;;1.75;0.90;;;10.40;99.90;;;;;;5043390;28;20105;-50
2024/02/08 10:13:53;;;;;;;1.23;0.85;;;10.80;99.90;;;;;;5047702;28;20060;-51
2024/02/08 10:16:29;;;;;;;3.47;0.95;;;11.00;99.90;;;;;;5052529;28;20069;-48
2024/02/08 10:19:16;;;;;;;1.83;0.98;;;11.10;99.90;;;;;;5047552;28;20441;-50
2024/02/08 10:21:44;;;;;;;1.45;0.93;;;11.30;99.90;;;;;;5049342;28;20552;-48
2024/02/08 10:24:25;;;;;;;2.13;1.00;;;11.20;99.90;;;;;;5054850;28;20162;-53
2024/02/08 10:26:58;;;;;;;1.88;1.00;;;11.10;99.90;;;;;;5050954;28;20075;-48
2024/02/08 10:29:31;;;;;;;2.33;1.00;;;11.40;99.90;;;;;;5045825;28;20076;-49
2024/02/08 10:31:59;;;;;;;1.13;0.68;;;11.50;99.90;;;;;;5053099;28;20127;-44
2024/02/08 10:34:33;;;;;;;2.10;0.73;;;11.60;99.90;;;;;;5045494;28;20143;-55
2024/02/08 10:37:06;;;;;;;1.92;0.90;;;11.70;99.90;;;;;;5051425;28;20060;-43
2024/02/08 10:39:41;;;;;;;1.83;0.98;;;11.60;99.90;;;;;;5047617;28;20063;-51
2024/02/08 10:42:13;;;;;;;1.77;0.93;;;11.50;99.90;;;;;;5053589;28;20157;-54
2024/02/08 10:44:44;;;;;;;2.30;1.08;;;11.40;99.90;;;;;;5050877;28;20074;-47
2024/02/08 10:47:12;;;;;;;2.15;0.80;;;11.40;99.90;;;;;;5054812;28;20052;-49
2024/02/08 10:49:46;;;;;;;1.65;0.90;;;11.30;99.90;;;;;;5050388;28;20103;-48
2024/02/08 10:52:19;;;;;;;1.42;0.77;;;11.30;99.90;;;;;;5049191;28;20052;-45
2024/02/08 10:54:51;;;;;;;1.23;0.82;;;11.30;99.90;;;;;;5050625;28;20041;-49
2024/02/08 10:57:39;;;;;;;1.40;0.90;;;11.40;99.90;;;;;;5053037;28;20514;-49
2024/02/08 11:01:32;;;;;;;3.60;1.20;;;11.30;99.90;;;;;;5055277;28;20052;-47
2024/02/08 11:03:14;;;;;;;2.33;1.20;;;11.30;99.90;;;;;;5027504;28;20088;-44
2024/02/08 11:06:00;;;;;;;1.35;0.95;;;11.40;99.90;;;;;;5047728;28;20095;-53
2024/02/08 11:08:33;;;;;;;2.65;1.00;;;11.40;99.90;;;;;;5039365;28;20064;-47
2024/02/08 11:11:09;;;;;;;2.88;1.08;;;11.40;99.90;;;;;;5052252;28;20568;-54
2024/02/08 11:13:41;;;;;;;2.72;1.10;;;11.40;99.90;;;;;;5046047;28;20124;-54
2024/02/08 11:16:20;;;;;;;1.80;0.75;;;11.50;99.90;;;;;;5050656;28;20504;-52
2024/02/08 11:18:52;;;;;;;2.45;1.20;;;11.50;99.90;;;;;;5048643;28;20041;-54
2024/02/08 11:21:43;;;;;;;2.25;1.10;;;11.50;99.90;;;;;;5048231;28;20559;-50
2024/02/08 11:24:39;;;;;;;5.07;2.58;;;11.30;99.90;;;;;;5050998;28;20045;-44
2024/02/08 11:27:06;;;;;;;2.40;1.10;;;11.50;99.90;;;;;;5046570;28;20088;-48
2024/02/08 11:29:45;;;;;;;2.53;1.10;;;11.40;99.90;;;;;;5046785;28;20114;-50
2024/02/08 11:32:16;;;;;;;5.35;2.35;;;11.50;99.90;;;;;;5049436;28;20087;-47
2024/02/08 11:34:45;;;;;;;;;;;11.50;99.90;;;;;;5045109;28;20465;-50
2024/02/08 11:37:17;;;;;;;1.27;0.80;;;11.40;99.90;;;;;;5049938;28;19927;-51
2024/02/08 11:39:46;;;;;;;1.65;0.93;;;11.40;99.90;;;;;;5045253;28;20041;-53
2024/02/08 11:42:18;;;;;;;1.65;0.90;;;11.40;99.90;;;;;;5046421;28;20041;-48
2024/02/08 11:44:46;;;;;;;3.22;1.00;;;11.60;99.90;;;;;;5048250;28;20521;-43
2024/02/08 11:47:22;;;;;;;0.90;0.73;;;11.60;99.90;;;;;;5039809;28;20057;-51
2024/02/08 11:50:03;;;;;;;1.88;0.82;;;11.50;99.90;;;;;;5044725;28;20062;-45
2024/02/08 11:52:33;;;;;;;3.63;1.00;;;11.50;99.90;;;;;;5046926;28;20129;-53
2024/02/08 11:55:15;;;;;;;1.75;1.00;;;11.50;99.90;;;;;;5047324;28;20045;-51
2024/02/08 11:57:46;;;;;;;1.33;0.82;;;11.50;99.90;;;;;;5048930;28;20041;-46
2024/02/08 12:00:16;;;;;;;1.85;0.93;;;11.50;99.90;;;;;;5041523;28;20535;-51
2024/02/08 12:02:54;;;;;;;2.92;1.92;;;11.50;99.90;;;;;;5044197;28;20045;-48
2024/02/08 12:05:21;;;;;;;2.45;0.93;;;11.50;99.90;;;;;;5048093;28;20048;-49
2024/02/08 12:07:48;;;;;;;1.48;0.80;;;11.40;99.90;;;;;;5050451;28;20546;-49
2024/02/08 12:10:17;;;;;;;1.80;0.80;;;11.40;99.90;;;;;;5050546;28;20106;-54
2024/02/08 12:12:45;;;;;;;2.97;1.35;;;11.50;99.90;;;;;;5051817;28;20045;-51
2024/02/08 12:15:13;;;;;;;1.55;0.80;;;11.50;99.90;;;;;;5047698;28;20377;-48
2024/02/08 12:17:48;;;;;;;1.98;0.90;;;11.50;99.90;;;;;;5040318;28;20069;-45
2024/02/08 12:20:16;;;;;;;2.45;0.98;;;11.50;99.90;;;;;;5048221;28;20060;-46
2024/02/08 12:22:53;;;;;;;2.13;0.90;;;11.60;99.90;;;;;;5050330;28;20044;-48
2024/02/08 12:25:20;;;;;;;2.80;0.77;;;11.60;99.90;;;;;;5046191;28;20057;-46
2024/02/08 12:27:51;;;;;;;1.60;1.00;;;11.60;99.90;;;;;;5048703;28;20044;-49
2024/02/08 12:30:21;;;;;;;1.63;0.90;;;11.70;99.90;;;;;;5049391;28;20051;-51
2024/02/08 12:32:52;;;;;;;2.42;0.88;;;11.60;99.90;;;;;;5041641;28;20506;-47
2024/02/08 12:35:26;;;;;;;3.30;1.13;;;11.60;99.90;;;;;;5042931;28;20429;-50
2024/02/08 12:37:58;;;;;;;2.10;0.90;;;11.50;99.90;;;;;;5045038;28;20045;-47
2024/02/08 12:40:32;;;;;;;1.77;0.90;;;11.60;99.90;;;;;;5048564;28;20043;-51
2024/02/08 12:43:00;;;;;;;2.13;1.00;;;11.60;99.90;;;;;;5044107;28;20056;-48
2024/02/08 12:45:32;;;;;;;1.92;1.00;;;11.60;99.90;;;;;;5047028;28;20055;-53
2024/02/08 12:47:59;;;;;;;1.48;0.93;;;11.60;99.90;;;;;;5042924;28;20146;-49
2024/02/08 12:50:31;;;;;;;1.38;0.80;;;11.60;99.90;;;;;;5051842;28;20049;-52
2024/02/08 12:52:58;;;;;;;2.50;0.98;;;11.40;99.90;;;;;;5047373;28;20045;-50
2024/02/08 12:55:30;;;;;;;2.10;1.08;;;11.50;99.90;;;;;;5050195;28;20485;-50
2024/02/08 12:58:02;;;;;;;2.90;0.90;;;11.40;99.90;;;;;;5044319;28;20486;-47
2024/02/08 13:00:33;;;;;;;7.95;1.50;;;11.50;99.90;;;;;;5046123;28;20076;-51
2024/02/08 13:03:06;;;;;;;1.25;0.80;;;11.50;99.90;;;;;;5052958;28;20033;-51
2024/02/08 13:05:42;;;;;;;1.83;1.00;;;11.40;99.90;;;;;;5048419;28;20041;-51
2024/02/08 13:08:09;;;;;;;1.65;0.70;;;11.40;99.90;;;;;;5041489;28;20087;-49
2024/02/08 13:10:38;;;;;;;1.70;0.95;;;11.40;99.90;;;;;;5050052;28;20057;-44
2024/02/08 13:13:10;;;;;;;2.55;1.00;;;11.40;99.90;;;;;;5047642;28;20086;-52
2024/02/08 13:15:41;;;;;;;1.33;0.70;;;11.40;99.90;;;;;;5050627;28;20077;-47
2024/02/08 13:18:10;;;;;;;1.77;0.93;;;11.30;99.90;;;;;;5048298;28;20075;-47
2024/02/08 13:20:37;;;;;;;1.65;0.90;;;11.40;99.90;;;;;;5050971;28;20128;-47
2024/02/08 13:23:10;;;;;;;3.03;0.90;;;11.30;99.90;;;;;;5049861;28;20344;-55
2024/02/08 13:25:39;;;;;;;2.17;1.00;;;11.40;99.90;;;;;;5049278;28;20071;-48
2024/02/08 13:28:09;;;;;;;1.17;0.80;;;11.30;99.90;;;;;;5052832;28;20053;-52
2024/02/08 13:30:39;;;;;;;1.55;0.90;;;11.20;99.90;;;;;;5048173;28;20068;-47
2024/02/08 13:33:10;;;;;;;2.67;1.15;;;11.20;99.90;;;;;;5051826;28;20063;-46
2024/02/08 13:35:42;;;;;;;1.88;0.98;;;11.30;99.90;;;;;;5050568;28;20063;-46
2024/02/08 13:38:12;;;;;;;2.77;1.30;;;11.30;99.90;;;;;;5045903;28;20464;-45
2024/02/08 13:40:43;;;;;;;2.42;0.90;;;11.30;99.90;;;;;;5052302;28;20048;-49
2024/02/08 13:43:12;;;;;;;1.52;0.90;;;11.30;99.90;;;;;;5047182;28;20041;-50
2024/02/08 13:45:40;;;;;;;1.80;1.00;;;11.20;99.90;;;;;;5051600;28;20062;-47
2024/02/08 13:48:12;;;;;;;3.40;0.90;;;11.20;99.90;;;;;;5048907;28;20053;-47
2024/02/08 13:50:43;;;;;;;0.93;0.63;;;11.30;99.90;;;;;;5051131;28;20045;-45
2024/02/08 13:53:14;;;;;;;1.38;0.80;;;11.30;99.90;;;;;;5049604;28;20509;-48
2024/02/08 13:55:52;;;;;;;1.67;0.90;;;11.30;99.90;;;;;;5048030;28;20049;-49
2024/02/08 13:58:25;;;;;;;1.98;1.02;;;11.30;99.90;;;;;;5036045;28;20132;-50
2024/02/08 14:00:57;;;;;;;3.17;0.80;;;11.20;99.90;;;;;;5047485;28;20044;-53
2024/02/08 14:03:29;;;;;;;2.83;1.00;;;11.20;99.90;;;;;;5046406;28;20133;-49
2024/02/08 14:05:59;;;;;;;2.08;0.93;;;11.20;99.90;;;;;;5046770;28;20069;-48
2024/02/08 14:08:27;;;;;;;2.58;1.17;;;11.20;99.90;;;;;;5045833;28;20103;-45
2024/02/08 14:10:58;;;;;;;1.65;0.90;;;11.20;99.90;;;;;;5049218;28;20075;-47
2024/02/08 14:13:29;;;;;;;1.35;0.90;;;11.20;99.90;;;;;;5046571;28;20141;-51
2024/02/08 14:16:05;;;;;;;2.67;0.90;;;11.20;99.90;;;;;;5025503;28;20049;-52
2024/02/08 14:18:34;;;;;;;2.03;1.00;;;11.20;99.90;;;;;;5047181;28;20041;-46
2024/02/08 14:21:08;;;;;;;2.97;1.17;;;11.20;99.90;;;;;;5051338;28;20319;-52
2024/02/08 14:23:38;;;;;;;2.20;1.15;;;11.20;99.90;;;;;;5044214;28;20048;-48
2024/02/08 14:28:47;;;;;;;4.93;1.45;;;11.20;99.90;;;;;;5051568;28;20317;-48
2024/02/08 14:31:15;;;;;;;1.27;0.85;;;11.20;99.90;;;;;;5050273;28;20057;-50
2024/02/08 14:33:46;;;;;;;2.25;1.00;;;11.10;99.90;;;;;;5050239;28;20055;-48
2024/02/08 14:36:17;;;;;;;2.05;1.10;;;11.10;99.90;;;;;;5050068;28;20123;-51
2024/02/08 14:38:45;;;;;;;2.33;1.10;;;11.20;99.90;;;;;;5047476;28;20124;-54
2024/02/08 14:44:06;;;;;;;2.30;0.93;;;11.10;99.90;;;;;;5050709;28;20055;-47
2024/02/08 14:46:41;;;;;;;1.85;0.95;;;11.10;99.90;;;;;;5058755;28;20052;-44
2024/02/08 14:49:23;;;;;;;3.28;1.20;;;11.10;99.90;;;;;;5049300;28;20110;-42
2024/02/08 14:52:01;;;;;;;5.35;1.30;;;11.10;99.90;;;;;;5058985;28;20079;-48
2024/02/08 14:54:31;;;;;;;2.65;1.00;;;11.10;99.90;;;;;;5053375;28;20109;-50
2024/02/08 14:57:04;;;;;;;3.75;1.17;;;11.10;99.90;;;;;;5050015;28;20106;-48
2024/02/08 14:59:49;;;;;;;3.30;1.20;;;11.10;99.90;;;;;;5057633;28;20048;-52
2024/02/08 15:02:21;;;;;;;3.03;1.25;;;11.00;99.90;;;;;;5056081;28;20472;-49
2024/02/08 15:04:52;;;;;;;6.55;2.20;;;11.00;99.90;;;;;;5054629;28;20064;-45
2024/02/08 15:10:43;;;;;;;4.63;1.42;;;11.00;99.90;;;;;;4969080;28;20544;-48
2024/02/08 15:13:18;;;;;;;4.47;1.52;;;11.00;99.90;;;;;;4968251;28;20081;-50
2024/02/08 15:15:50;;;;;;;4.65;1.80;;;11.00;99.90;;;;;;4968040;28;20174;-49
2024/02/08 15:18:30;;;;;;;2.88;1.42;;;10.90;99.90;;;;;;4967032;28;20508;-49
2024/02/08 15:20:57;;;;;;;4.43;1.50;;;10.90;99.90;;;;;;4965827;28;20050;-46
2024/02/08 15:26:12;;;;;;;4.50;1.80;;;10.90;99.90;;;;;;4961614;28;20050;-45
2024/02/08 15:28:54;;;;;;;7.75;1.90;;;10.90;99.90;;;;;;4966055;28;20078;-50
2024/02/08 15:31:39;;;;;;;7.50;1.70;;;10.90;99.90;;;;;;4968927;28;20046;-46
2024/02/08 15:37:13;;;;;;;5.75;2.35;;;10.90;99.90;;;;;;4966565;28;20058;-50
2024/02/08 15:42:17;;;;;;;4.32;2.00;;;10.90;99.90;;;;;;5034027;28;20056;-49